createdAt,value
2022-11-21T22:45:15.373Z,14.50
2022-11-21T22:46:15.323Z,12.00
2022-11-21T22:47:15.313Z,13.10
2022-11-21T22:48:15.296Z,12.00
2022-11-21T22:49:15.317Z,12.00
2022-11-21T22:50:15.273Z,11.70
2022-11-21T22:51:15.267Z,11.90
2022-11-21T22:52:15.325Z,12.00
2022-11-21T22:53:15.242Z,10.40
2022-11-21T22:54:15.229Z,10.80
2022-11-21T22:55:15.236Z,12.00
2022-11-21T22:56:15.208Z,10.60
2022-11-21T22:57:15.211Z,11.50
2022-11-21T22:58:15.187Z,10.40
2022-11-21T22:59:15.211Z,9.90
2022-11-21T23:00:15.161Z,9.70
2022-11-21T23:01:15.187Z,11.90
2022-11-21T23:02:15.255Z,9.90
2022-11-21T23:03:15.145Z,9.10
2022-11-21T23:04:17.893Z,10.20
2022-11-21T23:05:15.113Z,10.00
2022-11-21T23:06:15.101Z,10.00
2022-11-21T23:07:15.213Z,10.20
2022-11-21T23:08:15.089Z,10.50
2022-11-21T23:09:15.071Z,10.10
2022-11-21T23:10:15.064Z,9.70
2022-11-21T23:11:15.052Z,9.00
2022-11-21T23:12:15.046Z,9.10
2022-11-21T23:13:15.029Z,9.50
2022-11-21T23:14:15.028Z,10.00
2022-11-21T23:15:15.006Z,9.20
2022-11-21T23:16:15.663Z,9.60
2022-11-21T23:17:15.007Z,9.60
2022-11-21T23:18:14.990Z,9.20
2022-11-21T23:19:14.974Z,8.80
2022-11-21T23:20:14.966Z,9.00
2022-11-21T23:21:14.942Z,8.70
2022-11-21T23:22:14.925Z,9.90
2022-11-21T23:23:14.918Z,8.60
2022-11-21T23:24:14.917Z,8.40
2022-11-21T23:25:14.898Z,8.40
2022-11-21T23:26:14.887Z,8.80
2022-11-21T23:27:14.876Z,8.20
2022-11-21T23:28:14.889Z,8.70
2022-11-21T23:29:14.882Z,8.70
2022-11-21T23:30:14.842Z,8.70
2022-11-21T23:31:14.833Z,8.60
2022-11-21T23:32:14.820Z,7.90
2022-11-21T23:33:14.843Z,8.40
2022-11-21T23:34:14.825Z,8.70
2022-11-21T23:35:14.789Z,11.00
2022-11-21T23:36:14.773Z,9.00
2022-11-21T23:37:14.765Z,8.70
2022-11-21T23:38:14.779Z,10.00
2022-11-21T23:39:14.746Z,8.30
2022-11-21T23:40:14.738Z,8.60
2022-11-21T23:41:14.751Z,7.60
2022-11-21T23:42:14.734Z,7.60
2022-11-21T23:43:14.712Z,8.10
2022-11-21T23:44:14.712Z,9.80
2022-11-21T23:45:14.678Z,7.80
2022-11-21T23:46:14.685Z,7.90
2022-11-21T23:47:14.676Z,7.70
2022-11-21T23:48:14.665Z,7.60
2022-11-21T23:49:14.676Z,7.80
2022-11-21T23:50:14.634Z,8.00
2022-11-21T23:51:14.613Z,7.30
2022-11-21T23:52:14.601Z,8.90
2022-11-21T23:53:14.608Z,8.10
2022-11-21T23:54:14.598Z,8.20
2022-11-21T23:55:14.570Z,7.00
2022-11-21T23:56:14.574Z,7.30
2022-11-21T23:57:14.566Z,9.70
2022-11-21T23:58:14.547Z,7.50
2022-11-21T23:59:14.547Z,7.40
